Time;durP1;ratioP1;P1;durP2;ratioP2;P2;SDS_P1;SDS_P2;PMS_P1;PMS_P2;Temp;Humidity;BMP_temperature;BMP_pressure;BME280_temperature;BME280_humidity;BME280_pressure;Samples;Min_cycle;Max_cycle;Signal;HPM_P1;HPM_P2
2021/08/29 00:00:19;;;;;;;47.97;29.25;;;;;;;-145.01;100.00;64805.59;4975578;28;20026;-65
2021/08/29 00:02:45;;;;;;;44.72;29.23;;;;;;;-145.01;100.00;64805.59;4993371;28;20025;-65
2021/08/29 00:05:10;;;;;;;44.17;29.50;;;;;;;-145.01;100.00;64805.59;4975583;28;20030;-65
2021/08/29 00:07:36;;;;;;;51.70;29.55;;;;;;;-145.01;100.00;64805.59;4993382;28;20056;-65
2021/08/29 00:10:01;;;;;;;52.30;31.27;;;;;;;-145.01;100.00;64805.59;4993005;28;20390;-65
2021/08/29 00:12:27;;;;;;;50.75;31.48;;;;;;;-145.01;100.00;64805.59;4993339;28;20023;-65
2021/08/29 00:14:52;;;;;;;47.92;30.83;;;;;;;-145.01;100.00;64805.59;4993183;28;20034;-65
2021/08/29 00:17:18;;;;;;;45.53;29.45;;;;;;;-145.01;100.00;64805.59;4991546;28;20043;-65
2021/08/29 00:19:43;;;;;;;50.78;30.02;;;;;;;-145.01;100.00;64805.59;4993054;28;20437;-66
2021/08/29 00:22:09;;;;;;;49.97;30.48;;;;;;;-145.01;100.00;64805.59;4992886;28;20043;-65
2021/08/29 00:24:34;;;;;;;54.67;31.30;;;;;;;-145.01;100.00;64805.59;4992073;28;20524;-65
2021/08/29 00:26:59;;;;;;;54.38;30.80;;;;;;;-145.01;100.00;64805.59;4994959;28;20034;-65
2021/08/29 00:29:25;;;;;;;48.15;29.52;;;;;;;-145.01;100.00;64805.59;4997288;28;20022;-65
2021/08/29 00:31:50;;;;;;;58.05;32.67;;;;;;;-145.01;100.00;64805.59;4996806;28;20034;-65
2021/08/29 00:34:16;;;;;;;66.00;32.55;;;;;;;-145.01;100.00;64805.59;4995785;28;20484;-65
2021/08/29 00:36:41;;;;;;;63.83;31.77;;;;;;;-145.01;100.00;64805.59;4996842;28;20030;-65
2021/08/29 00:39:06;;;;;;;56.40;32.20;;;;;;;-145.01;100.00;64805.59;4997206;28;20350;-65
2021/08/29 00:41:32;;;;;;;60.90;32.60;;;;;;;-145.01;100.00;64805.59;4995273;28;20162;-65
2021/08/29 00:43:57;;;;;;;59.40;32.08;;;;;;;-145.01;100.00;64805.59;4997112;28;20076;-65
2021/08/29 00:46:24;;;;;;;51.58;27.85;;;;;;;-145.01;100.00;64805.59;4996644;28;20122;-65
2021/08/29 00:48:50;;;;;;;52.70;29.83;;;;;;;-145.01;100.00;64805.59;4997267;28;20111;-65
2021/08/29 00:51:15;;;;;;;56.63;30.10;;;;;;;-145.01;100.00;64805.59;4996447;28;20063;-65
2021/08/29 00:53:46;;;;;;;47.70;27.50;;;;;;;-145.01;100.00;64805.59;4995414;28;20104;-65
2021/08/29 00:56:12;;;;;;;53.25;29.27;;;;;;;-145.01;100.00;64805.59;4995889;28;20058;-65
2021/08/29 00:58:37;;;;;;;53.63;28.13;;;;;;;-145.01;100.00;64805.59;4996703;28;20061;-65
2021/08/29 01:01:03;;;;;;;48.28;26.80;;;;;;;-145.01;100.00;64805.59;4994887;28;20461;-65
2021/08/29 01:03:28;;;;;;;48.50;27.92;;;;;;;-145.01;100.00;64805.59;4995505;28;20056;-65
2021/08/29 01:06:11;;;;;;;51.58;28.08;;;;;;;-145.01;100.00;64805.59;4995033;28;20065;-65
2021/08/29 01:08:38;;;;;;;49.88;27.75;;;;;;;-145.01;100.00;64805.59;4980076;28;20022;-65
2021/08/29 01:11:17;;;;;;;49.05;27.48;;;;;;;-145.01;100.00;64805.59;4994754;28;20400;-65
2021/08/29 01:13:47;;;;;;;49.20;25.73;;;;;;;-145.01;100.00;64805.59;4996761;28;20022;-65
2021/08/29 01:16:17;;;;;;;43.47;26.35;;;;;;;-145.01;100.00;64805.59;4994729;28;20045;-65
2021/08/29 01:18:42;;;;;;;43.42;24.75;;;;;;;-145.01;100.00;64805.59;4995420;28;20030;-65
2021/08/29 01:21:15;;;;;;;39.78;21.50;;;;;;;-145.01;100.00;64805.59;4962325;28;20117;-65
2021/08/29 01:23:42;;;;;;;39.53;21.92;;;;;;;-145.01;100.00;64805.59;4995230;28;20037;-65
2021/08/29 01:26:16;;;;;;;34.72;21.23;;;;;;;-145.01;100.00;64805.59;4995876;28;20041;-65
2021/08/29 01:28:48;;;;;;;35.70;22.42;;;;;;;-145.01;100.00;64805.59;4995176;28;20038;-65
2021/08/29 01:31:13;;;;;;;39.50;22.13;;;;;;;-145.01;100.00;64805.59;4995885;28;20037;-65
2021/08/29 01:33:39;;;;;;;39.00;22.38;;;;;;;-145.01;100.00;64805.59;4994926;28;20034;-65
2021/08/29 01:36:04;;;;;;;41.53;24.05;;;;;;;-145.01;100.00;64805.59;4993736;28;20516;-65
2021/08/29 01:38:29;;;;;;;40.88;24.73;;;;;;;-145.01;100.00;64805.59;4977637;28;20033;-65
2021/08/29 01:40:55;;;;;;;50.70;25.65;;;;;;;-145.01;100.00;64805.59;4995685;28;20033;-65
2021/08/29 01:43:20;;;;;;;47.10;25.50;;;;;;;-145.01;100.00;64805.59;4978544;28;20039;-65
2021/08/29 01:45:46;;;;;;;41.88;25.63;;;;;;;-145.01;100.00;64805.59;4978293;28;20071;-65
2021/08/29 01:48:11;;;;;;;48.50;28.92;;;;;;;-145.01;100.00;64805.59;4994722;28;20030;-65
2021/08/29 01:50:36;;;;;;;47.42;28.98;;;;;;;-145.01;100.00;64805.59;4994125;28;20039;-65
2021/08/29 01:53:03;;;;;;;50.78;27.60;;;;;;;-145.01;100.00;64805.59;5010767;28;20033;-65
2021/08/29 01:55:29;;;;;;;59.17;27.40;;;;;;;-145.01;100.00;64805.59;4993860;28;20452;-65
2021/08/29 01:57:54;;;;;;;50.90;28.55;;;;;;;-145.01;100.00;64805.59;4995784;28;20034;-65
2021/08/29 02:00:19;;;;;;;50.83;26.67;;;;;;;-145.01;100.00;64805.59;4995345;28;20129;-65
2021/08/29 02:02:45;;;;;;;48.38;26.70;;;;;;;-145.01;100.00;64805.59;4978188;28;20034;-65
2021/08/29 02:05:11;;;;;;;43.90;26.58;;;;;;;-145.01;100.00;64805.59;4993960;28;20033;-65
2021/08/29 02:07:49;;;;;;;48.33;26.42;;;;;;;-145.01;100.00;64805.59;4994317;28;20018;-65
2021/08/29 02:10:16;;;;;;;39.72;25.38;;;;;;;-145.01;100.00;64805.59;4993650;28;20042;-65
2021/08/29 02:12:53;;;;;;;39.53;24.23;;;;;;;-145.01;100.00;64805.59;4995652;28;20373;-65
2021/08/29 02:15:26;;;;;;;34.58;21.77;;;;;;;-145.01;100.00;64805.59;4993732;28;20540;-65
2021/08/29 02:17:51;;;;;;;41.00;23.10;;;;;;;-145.01;100.00;64805.59;4994081;28;20488;-65
2021/08/29 02:20:19;;;;;;;41.67;22.45;;;;;;;-145.01;100.00;64805.59;4993560;28;20022;-65
2021/08/29 02:22:45;;;;;;;44.92;25.30;;;;;;;-145.01;100.00;64805.59;4978073;28;20054;-65
2021/08/29 02:25:11;;;;;;;41.15;24.92;;;;;;;-145.01;100.00;64805.59;4993490;28;20022;-65
2021/08/29 02:27:36;;;;;;;44.28;23.67;;;;;;;-145.01;100.00;64805.59;4993909;28;20113;-65
2021/08/29 02:30:02;;;;;;;49.40;26.23;;;;;;;-145.01;100.00;64805.59;4994690;28;20015;-65
2021/08/29 02:32:28;;;;;;;49.47;26.35;;;;;;;-145.01;100.00;64805.59;4994958;28;20034;-65
2021/08/29 02:34:53;;;;;;;49.95;27.38;;;;;;;-145.01;100.00;64805.59;4993616;28;20046;-65
2021/08/29 02:37:19;;;;;;;51.47;26.98;;;;;;;-145.01;100.00;64805.59;4993242;28;20045;-65
2021/08/29 02:39:44;;;;;;;54.08;28.27;;;;;;;-145.01;100.00;64805.59;4993642;28;20026;-65
2021/08/29 02:42:09;;;;;;;49.13;27.05;;;;;;;-145.01;100.00;64805.59;4994479;28;20034;-65
2021/08/29 02:44:36;;;;;;;48.67;27.40;;;;;;;-145.01;100.00;64805.59;4977162;28;20027;-65
2021/08/29 02:47:01;;;;;;;47.35;27.58;;;;;;;-145.01;100.00;64805.59;4993003;28;20034;-65
2021/08/29 02:49:27;;;;;;;46.10;25.75;;;;;;;-145.01;100.00;64805.59;4977087;28;20476;-65
2021/08/29 02:51:52;;;;;;;48.22;27.73;;;;;;;-145.01;100.00;64805.59;4976794;28;20035;-65
2021/08/29 02:54:21;;;;;;;51.08;26.67;;;;;;;-145.01;100.00;64805.59;4993214;28;20480;-65
2021/08/29 02:56:49;;;;;;;52.33;27.27;;;;;;;-145.01;100.00;64805.59;4992436;28;20434;-65
2021/08/29 02:59:16;;;;;;;47.92;27.35;;;;;;;-145.01;100.00;64805.59;4993206;28;20072;-65
2021/08/29 03:01:41;;;;;;;53.80;28.88;;;;;;;-145.01;100.00;64805.59;4993961;28;20045;-65
2021/08/29 03:04:07;;;;;;;56.67;29.08;;;;;;;-145.01;100.00;64805.59;4994323;28;20473;-65
2021/08/29 03:06:33;;;;;;;54.92;29.88;;;;;;;-145.01;100.00;64805.59;4994040;28;20045;-65
2021/08/29 03:08:59;;;;;;;66.70;32.05;;;;;;;-145.01;100.00;64805.59;4994222;28;20096;-65
2021/08/29 03:11:24;;;;;;;60.58;32.70;;;;;;;-145.01;100.00;64805.59;4992569;28;20062;-65
2021/08/29 03:13:50;;;;;;;72.35;33.97;;;;;;;-145.01;100.00;64805.59;4994129;28;20030;-65
2021/08/29 03:16:16;;;;;;;77.25;35.75;;;;;;;-145.01;100.00;64805.59;4993655;28;20555;-65
2021/08/29 03:18:45;;;;;;;78.72;38.13;;;;;;;-145.01;100.00;64805.59;4994392;28;20109;-65
2021/08/29 03:21:10;;;;;;;85.38;41.78;;;;;;;-145.01;100.00;64805.59;4992588;28;20058;-65
2021/08/29 03:23:36;;;;;;;79.57;39.63;;;;;;;-145.01;100.00;64805.59;4994287;28;20099;-65
2021/08/29 03:26:02;;;;;;;87.50;39.45;;;;;;;-145.01;100.00;64805.59;4992569;28;20031;-65
2021/08/29 03:28:27;;;;;;;98.68;42.85;;;;;;;-145.01;100.00;64805.59;4992903;28;20465;-65
2021/08/29 03:30:53;;;;;;;95.93;41.63;;;;;;;-145.01;100.00;64805.59;4993574;28;20038;-65
2021/08/29 03:33:18;;;;;;;104.20;46.30;;;;;;;-145.01;100.00;64805.59;4992776;28;20472;-65
2021/08/29 03:35:44;;;;;;;98.57;45.10;;;;;;;-145.01;100.00;64805.59;4992072;28;20035;-65
2021/08/29 03:38:09;;;;;;;110.68;45.53;;;;;;;-145.01;100.00;64805.59;4976612;28;20167;-65
2021/08/29 03:40:35;;;;;;;109.50;47.20;;;;;;;-145.01;100.00;64805.59;4992125;28;20121;-65
2021/08/29 03:43:00;;;;;;;111.35;46.45;;;;;;;-145.01;100.00;64805.59;4976255;28;20045;-65
2021/08/29 03:45:26;;;;;;;99.30;41.60;;;;;;;-145.01;100.00;64805.59;4993378;28;20049;-65
2021/08/29 03:47:52;;;;;;;102.90;41.58;;;;;;;-145.01;100.00;64805.59;4993483;28;20026;-65
2021/08/29 03:50:18;;;;;;;101.97;42.55;;;;;;;-145.01;100.00;64805.59;4993373;28;20069;-65
2021/08/29 03:52:43;;;;;;;105.82;44.00;;;;;;;-145.01;100.00;64805.59;4993485;28;20149;-64
2021/08/29 03:55:09;;;;;;;100.38;41.83;;;;;;;-145.01;100.00;64805.59;4992982;28;20035;-65
2021/08/29 03:57:36;;;;;;;100.85;43.42;;;;;;;-145.01;100.00;64805.59;4993365;28;20469;-65
2021/08/29 04:00:02;;;;;;;98.35;42.45;;;;;;;-145.01;100.00;64805.59;4992961;28;20026;-65
2021/08/29 04:02:28;;;;;;;95.50;42.15;;;;;;;-145.01;100.00;64805.59;4975103;28;20118;-65
2021/08/29 04:04:54;;;;;;;106.05;42.70;;;;;;;-145.01;100.00;64805.59;4993593;28;20026;-65
2021/08/29 04:07:19;;;;;;;110.55;43.05;;;;;;;-145.01;100.00;64805.59;4992925;28;20066;-65
2021/08/29 04:09:44;;;;;;;103.53;42.25;;;;;;;-145.01;100.00;64805.59;4959705;28;20405;-65
2021/08/29 04:12:10;;;;;;;99.20;42.72;;;;;;;-145.01;100.00;64805.59;4975528;28;20401;-65
2021/08/29 04:14:37;;;;;;;102.60;42.67;;;;;;;-145.01;100.00;64805.59;4975774;28;20026;-65
2021/08/29 04:17:02;;;;;;;109.38;43.67;;;;;;;-145.01;100.00;64805.59;4992925;28;20100;-65
2021/08/29 04:19:28;;;;;;;99.40;42.78;;;;;;;-145.01;100.00;64805.59;4975819;28;20030;-65
2021/08/29 04:21:54;;;;;;;98.43;41.40;;;;;;;-145.01;100.00;64805.59;4992828;28;20045;-65
2021/08/29 04:24:20;;;;;;;96.57;40.50;;;;;;;-145.01;100.00;64805.59;4993222;28;20034;-65
2021/08/29 04:26:46;;;;;;;92.55;39.63;;;;;;;-145.01;100.00;64805.59;4992869;28;20065;-65
2021/08/29 04:29:11;;;;;;;89.03;39.38;;;;;;;-145.01;100.00;64805.59;4993148;28;20504;-65
2021/08/29 04:31:37;;;;;;;81.70;36.80;;;;;;;-145.01;100.00;64805.59;4992958;28;20042;-65
2021/08/29 04:34:11;;;;;;;86.07;39.00;;;;;;;-145.01;100.00;64805.59;4993027;28;20508;-65
2021/08/29 04:36:37;;;;;;;87.47;37.22;;;;;;;-145.01;100.00;64805.59;4991525;28;20042;-65
2021/08/29 04:39:05;;;;;;;80.75;37.20;;;;;;;-145.01;100.00;64805.59;4991815;28;20037;-65
2021/08/29 04:41:30;;;;;;;95.57;40.30;;;;;;;-145.01;100.00;64805.59;4992578;28;20061;-65
2021/08/29 04:43:55;;;;;;;93.53;40.03;;;;;;;-145.01;100.00;64805.59;4993013;28;20026;-65
2021/08/29 04:46:21;;;;;;;93.97;41.28;;;;;;;-145.01;100.00;64805.59;4992697;28;20035;-65
2021/08/29 04:48:46;;;;;;;97.30;42.13;;;;;;;-145.01;100.00;64805.59;4991886;28;20026;-65
2021/08/29 04:51:11;;;;;;;90.38;42.72;;;;;;;-145.01;100.00;64805.59;4992692;28;20393;-65
2021/08/29 04:53:37;;;;;;;105.97;43.03;;;;;;;-145.01;100.00;64805.59;4992867;28;20465;-65
2021/08/29 04:56:03;;;;;;;100.95;39.72;;;;;;;-145.01;100.00;64805.59;4992569;28;20092;-65
2021/08/29 04:58:28;;;;;;;103.55;42.30;;;;;;;-145.01;100.00;64805.59;4992841;28;20065;-65
2021/08/29 05:00:54;;;;;;;100.00;40.65;;;;;;;-145.01;100.00;64805.59;4992456;28;20043;-65
2021/08/29 05:03:19;;;;;;;101.22;41.72;;;;;;;-145.01;100.00;64805.59;4992742;28;20022;-65
2021/08/29 05:05:44;;;;;;;89.70;38.83;;;;;;;-145.01;100.00;64805.59;4992609;28;20081;-65
2021/08/29 05:08:10;;;;;;;88.72;39.38;;;;;;;-145.01;100.00;64805.59;4991806;28;20086;-65
2021/08/29 05:10:35;;;;;;;93.18;40.25;;;;;;;-145.01;100.00;64805.59;4992369;28;20181;-65
2021/08/29 05:13:01;;;;;;;98.32;39.78;;;;;;;-145.01;100.00;64805.59;4993434;28;20037;-65
2021/08/29 05:15:26;;;;;;;84.03;36.80;;;;;;;-145.01;100.00;64805.59;4996149;28;20027;-65
2021/08/29 05:17:51;;;;;;;97.15;38.75;;;;;;;-145.01;100.00;64805.59;4996636;28;20022;-65
2021/08/29 05:20:17;;;;;;;83.55;36.95;;;;;;;-145.01;100.00;64805.59;4994613;28;20018;-65
2021/08/29 05:22:42;;;;;;;85.47;36.65;;;;;;;-145.01;100.00;64805.59;4995069;28;20022;-65
2021/08/29 05:25:08;;;;;;;82.50;35.92;;;;;;;-145.01;100.00;64805.59;4996067;28;20026;-65
2021/08/29 05:27:33;;;;;;;92.57;38.25;;;;;;;-145.01;100.00;64805.59;4996246;28;20022;-65
2021/08/29 05:29:59;;;;;;;95.13;40.13;;;;;;;-145.01;100.00;64805.59;4996468;28;20385;-65
2021/08/29 05:32:24;;;;;;;104.70;44.08;;;;;;;-145.01;100.00;64805.59;4995775;28;20030;-65
2021/08/29 05:34:50;;;;;;;112.60;44.55;;;;;;;-145.01;100.00;64805.59;4996115;28;20030;-65
2021/08/29 05:37:15;;;;;;;108.68;45.97;;;;;;;-145.01;100.00;64805.59;4995716;28;20382;-65
2021/08/29 05:39:40;;;;;;;122.38;46.22;;;;;;;-145.01;100.00;64805.59;4996125;28;20026;-65
2021/08/29 05:42:06;;;;;;;115.75;47.50;;;;;;;-145.01;100.00;64805.59;4995593;28;20045;-65
2021/08/29 05:44:31;;;;;;;101.70;44.45;;;;;;;-145.01;100.00;64805.59;4996268;28;20110;-65
2021/08/29 05:46:57;;;;;;;111.15;45.10;;;;;;;-145.01;100.00;64805.59;4995519;28;20428;-65
2021/08/29 05:49:22;;;;;;;105.07;43.95;;;;;;;-145.01;100.00;64805.59;4994865;28;20092;-65
2021/08/29 05:51:48;;;;;;;108.28;42.75;;;;;;;-145.01;100.00;64805.59;4995508;28;20046;-65
2021/08/29 05:54:13;;;;;;;115.80;44.70;;;;;;;-145.01;100.00;64805.59;4995754;28;20456;-65
2021/08/29 05:56:39;;;;;;;101.68;43.63;;;;;;;-145.01;100.00;64805.59;4995379;28;20034;-65
2021/08/29 05:59:04;;;;;;;103.22;42.17;;;;;;;-145.01;100.00;64805.59;4995723;28;20022;-65
2021/08/29 06:01:30;;;;;;;93.88;40.58;;;;;;;-145.01;100.00;64805.59;4995315;28;20073;-65
2021/08/29 06:03:55;;;;;;;90.57;40.00;;;;;;;-145.01;100.00;64805.59;4995618;28;20026;-65
2021/08/29 06:06:20;;;;;;;90.32;38.05;;;;;;;-145.01;100.00;64805.59;4995439;28;20138;-65
2021/08/29 06:08:46;;;;;;;77.45;36.75;;;;;;;-145.01;100.00;64805.59;4995661;28;20039;-65
2021/08/29 06:11:12;;;;;;;84.20;38.63;;;;;;;-145.01;100.00;64805.59;4994810;28;20041;-65
2021/08/29 06:13:37;;;;;;;86.50;39.03;;;;;;;-145.01;100.00;64805.59;4995460;28;20551;-65
2021/08/29 06:16:03;;;;;;;83.97;36.75;;;;;;;-145.01;100.00;64805.59;4995035;28;20040;-64
2021/08/29 06:18:28;;;;;;;94.85;37.40;;;;;;;-145.01;100.00;64805.59;4995542;28;20076;-64
2021/08/29 06:20:54;;;;;;;82.93;35.33;;;;;;;-145.01;100.00;64805.59;4993857;28;20512;-65
2021/08/29 06:23:19;;;;;;;77.72;34.30;;;;;;;-145.01;100.00;64805.59;4995357;28;20081;-65
2021/08/29 06:25:45;;;;;;;82.50;34.53;;;;;;;-145.01;100.00;64805.59;4994453;28;20588;-65
2021/08/29 06:28:10;;;;;;;65.90;31.02;;;;;;;-145.01;100.00;64805.59;4995202;28;20108;-65
2021/08/29 06:30:36;;;;;;;69.55;32.10;;;;;;;-145.01;100.00;64805.59;4994779;28;20046;-65
2021/08/29 06:33:01;;;;;;;60.00;27.40;;;;;;;-145.01;100.00;64805.59;4995176;28;20019;-65
2021/08/29 06:35:27;;;;;;;68.13;27.85;;;;;;;-145.01;100.00;64805.59;4994697;28;20041;-65
2021/08/29 06:37:52;;;;;;;54.28;27.30;;;;;;;-145.01;100.00;64805.59;4995106;28;20029;-65
2021/08/29 06:40:17;;;;;;;63.50;28.23;;;;;;;-145.01;100.00;64805.59;4994676;28;20037;-65
2021/08/29 06:42:43;;;;;;;59.85;26.25;;;;;;;-145.01;100.00;64805.59;4993696;28;20433;-65
2021/08/29 06:45:09;;;;;;;53.75;27.17;;;;;;;-145.01;100.00;64805.59;4993179;28;20023;-65
2021/08/29 06:47:34;;;;;;;57.58;28.60;;;;;;;-145.01;100.00;64805.59;4993534;28;20018;-65
2021/08/29 06:50:00;;;;;;;56.83;28.10;;;;;;;-145.01;100.00;64805.59;4993488;28;20041;-65
2021/08/29 06:52:25;;;;;;;59.75;27.75;;;;;;;-145.01;100.00;64805.59;4994327;28;20030;-65
2021/08/29 06:54:50;;;;;;;64.63;28.90;;;;;;;-145.01;100.00;64805.59;4994666;28;20031;-65
2021/08/29 06:57:16;;;;;;;61.28;28.83;;;;;;;-145.01;100.00;64805.59;4994049;28;20608;-65
2021/08/29 06:59:42;;;;;;;57.95;29.67;;;;;;;-145.01;100.00;64805.59;4994644;28;20026;-65
2021/08/29 07:02:07;;;;;;;59.00;28.60;;;;;;;-145.01;100.00;64805.59;4992717;28;20039;-65
2021/08/29 07:04:32;;;;;;;62.40;30.63;;;;;;;-145.01;100.00;64805.59;4994501;28;20065;-65
2021/08/29 07:06:58;;;;;;;56.47;29.05;;;;;;;-145.01;100.00;64805.59;4993519;28;20034;-65
2021/08/29 07:09:24;;;;;;;59.35;26.90;;;;;;;-145.01;100.00;64805.59;4994136;28;20042;-65
2021/08/29 07:11:49;;;;;;;58.30;29.60;;;;;;;-145.01;100.00;64805.59;4992515;28;20042;-65
2021/08/29 07:14:15;;;;;;;71.45;32.63;;;;;;;-145.01;100.00;64805.59;4994289;28;20077;-65
2021/08/29 07:16:41;;;;;;;66.03;28.98;;;;;;;-145.01;100.00;64805.59;4993957;28;20042;-65
2021/08/29 07:19:07;;;;;;;65.70;31.35;;;;;;;-145.01;100.00;64805.59;4994229;28;20110;-65
2021/08/29 07:21:32;;;;;;;66.20;30.17;;;;;;;-145.01;100.00;64805.59;4993881;28;20038;-65
2021/08/29 07:23:57;;;;;;;75.40;31.95;;;;;;;-145.01;100.00;64805.59;4994271;28;20370;-65
2021/08/29 07:26:23;;;;;;;66.63;29.98;;;;;;;-145.01;100.00;64805.59;4993852;28;20418;-65
2021/08/29 07:28:48;;;;;;;70.10;31.33;;;;;;;-145.01;100.00;64805.59;4994133;28;20026;-65
2021/08/29 07:31:14;;;;;;;63.75;30.85;;;;;;;-145.01;100.00;64805.59;4993875;28;20109;-65
2021/08/29 07:33:39;;;;;;;66.18;30.42;;;;;;;-145.01;100.00;64805.59;4994173;28;20026;-65
2021/08/29 07:36:05;;;;;;;59.55;29.15;;;;;;;-145.01;100.00;64805.59;4992828;28;20069;-65
2021/08/29 07:38:30;;;;;;;66.18;29.92;;;;;;;-145.01;100.00;64805.59;4994005;28;20037;-65
2021/08/29 07:40:56;;;;;;;61.60;30.30;;;;;;;-145.01;100.00;64805.59;4993490;28;20038;-65
2021/08/29 07:43:21;;;;;;;57.53;30.08;;;;;;;-145.01;100.00;64805.59;4994110;28;20026;-65
2021/08/29 07:45:46;;;;;;;61.90;28.55;;;;;;;-145.01;100.00;64805.59;4992408;28;20065;-65
2021/08/29 07:48:12;;;;;;;53.25;28.90;;;;;;;-145.01;100.00;64805.59;4992631;28;20027;-65
2021/08/29 07:50:37;;;;;;;58.92;28.75;;;;;;;-145.01;100.00;64805.59;4993424;28;20030;-65
2021/08/29 07:53:03;;;;;;;58.30;26.67;;;;;;;-145.01;100.00;64805.59;4992563;28;20030;-65
2021/08/29 07:55:28;;;;;;;55.72;26.55;;;;;;;-145.01;100.00;64805.59;4991988;28;20485;-65
2021/08/29 07:57:54;;;;;;;46.92;23.52;;;;;;;-145.01;100.00;64805.59;4993970;28;20030;-65
2021/08/29 08:00:20;;;;;;;53.17;26.02;;;;;;;-145.01;100.00;64805.59;4992261;28;20045;-65
2021/08/29 08:02:45;;;;;;;56.40;25.92;;;;;;;-145.01;100.00;64805.59;4993600;28;20385;-65
2021/08/29 08:05:10;;;;;;;50.65;26.30;;;;;;;-145.01;100.00;64805.59;4993030;28;20030;-65
2021/08/29 08:07:36;;;;;;;55.97;25.63;;;;;;;-145.01;100.00;64805.59;4992214;28;20030;-65
2021/08/29 08:10:02;;;;;;;53.65;26.27;;;;;;;-145.01;100.00;64805.59;4992865;28;20042;-65
2021/08/29 08:12:28;;;;;;;57.95;25.10;;;;;;;-145.01;100.00;64805.59;4993787;28;20046;-65
2021/08/29 08:14:53;;;;;;;64.32;28.65;;;;;;;-145.01;100.00;64805.59;4993606;28;20373;-65
2021/08/29 08:17:18;;;;;;;58.08;27.85;;;;;;;-145.01;100.00;64805.59;4993227;28;20041;-65
2021/08/29 08:19:44;;;;;;;59.63;26.52;;;;;;;-145.01;100.00;64805.59;4993383;28;20215;-65
2021/08/29 08:22:09;;;;;;;56.03;26.35;;;;;;;-145.01;100.00;64805.59;4992941;28;20412;-65
2021/08/29 08:24:35;;;;;;;56.42;27.35;;;;;;;-145.01;100.00;64805.59;4993269;28;20374;-65
2021/08/29 08:27:00;;;;;;;56.00;27.67;;;;;;;-145.01;100.00;64805.59;4992768;28;20504;-65
2021/08/29 08:29:26;;;;;;;54.63;27.67;;;;;;;-145.01;100.00;64805.59;4992001;28;20152;-65
2021/08/29 08:31:52;;;;;;;47.40;25.50;;;;;;;-145.01;100.00;64805.59;4991567;28;20053;-65
2021/08/29 08:34:17;;;;;;;45.35;24.30;;;;;;;-145.01;100.00;64805.59;4993052;28;20176;-65
2021/08/29 08:36:43;;;;;;;44.10;23.95;;;;;;;-145.01;100.00;64805.59;4992984;28;20482;-65
2021/08/29 08:39:08;;;;;;;42.17;23.65;;;;;;;-145.01;100.00;64805.59;4993081;28;20524;-65
2021/08/29 08:41:33;;;;;;;40.65;22.98;;;;;;;-145.01;100.00;64805.59;4992880;28;20401;-65
2021/08/29 08:43:59;;;;;;;44.00;23.42;;;;;;;-145.01;100.00;64805.59;4993141;28;20041;-65
2021/08/29 08:46:24;;;;;;;45.22;23.15;;;;;;;-145.01;100.00;64805.59;4992698;28;20047;-65
2021/08/29 08:48:51;;;;;;;46.40;24.33;;;;;;;-145.01;100.00;64805.59;4996833;28;20026;-65
2021/08/29 08:51:24;;;;;;;45.90;23.90;;;;;;;-145.01;100.00;64805.59;4995464;28;20047;-65
2021/08/29 08:53:50;;;;;;;44.78;25.95;;;;;;;-145.01;100.00;64805.59;4995697;28;20026;-65
2021/08/29 08:56:17;;;;;;;47.35;26.27;;;;;;;-145.01;100.00;64805.59;4995337;28;20062;-65
2021/08/29 08:58:42;;;;;;;47.72;24.48;;;;;;;-145.01;100.00;64805.59;4995343;28;20437;-65
2021/08/29 09:01:08;;;;;;;49.53;25.45;;;;;;;-145.01;100.00;64805.59;4995187;28;20045;-65
2021/08/29 09:03:36;;;;;;;50.78;26.17;;;;;;;-145.01;100.00;64805.59;4995518;28;20038;-65
2021/08/29 09:06:03;;;;;;;47.72;25.15;;;;;;;-145.01;100.00;64805.59;4995182;28;20038;-65
2021/08/29 09:08:28;;;;;;;40.95;24.92;;;;;;;-145.01;100.00;64805.59;4995386;28;20503;-65
2021/08/29 09:10:53;;;;;;;45.60;25.15;;;;;;;-145.01;100.00;64805.59;4996115;28;20042;-65
2021/08/29 09:13:19;;;;;;;47.15;25.27;;;;;;;-145.01;100.00;64805.59;4996554;28;20023;-65
2021/08/29 09:15:44;;;;;;;42.67;24.98;;;;;;;-145.01;100.00;64805.59;4994840;28;20039;-65
2021/08/29 09:18:10;;;;;;;42.80;24.80;;;;;;;-145.01;100.00;64805.59;4996708;28;20026;-65
2021/08/29 09:20:37;;;;;;;38.20;22.10;;;;;;;-145.01;100.00;64805.59;4994764;28;20037;-65
2021/08/29 09:23:04;;;;;;;41.08;23.50;;;;;;;-145.01;100.00;64805.59;4996454;28;20030;-65
2021/08/29 09:25:31;;;;;;;41.53;25.10;;;;;;;-145.01;100.00;64805.59;4995998;28;20072;-65
2021/08/29 09:27:58;;;;;;;42.80;24.52;;;;;;;-145.01;100.00;64805.59;4996280;28;20026;-65
2021/08/29 09:30:25;;;;;;;38.50;23.95;;;;;;;-145.01;100.00;64805.59;4996098;28;20050;-65
2021/08/29 09:32:56;;;;;;;36.97;23.08;;;;;;;-145.01;100.00;64805.59;4994943;28;20102;-65
2021/08/29 09:35:22;;;;;;;38.30;22.60;;;;;;;-145.01;100.00;64805.59;4995725;28;20129;-65
2021/08/29 09:37:48;;;;;;;39.10;23.88;;;;;;;-145.01;100.00;64805.59;4996204;28;20543;-67
2021/08/29 09:40:17;;;;;;;41.28;23.48;;;;;;;-145.01;100.00;64805.59;4995616;28;20027;-65
2021/08/29 09:42:43;;;;;;;53.73;25.17;;;;;;;-145.01;100.00;64805.59;4994899;28;20057;-65
2021/08/29 09:45:09;;;;;;;38.40;22.38;;;;;;;-145.01;100.00;64805.59;4994418;28;20065;-65
2021/08/29 09:47:34;;;;;;;36.80;23.30;;;;;;;-145.01;100.00;64805.59;4994731;28;20233;-65
2021/08/29 09:50:03;;;;;;;41.75;23.67;;;;;;;-145.01;100.00;64805.59;4995948;28;20026;-65
2021/08/29 09:52:29;;;;;;;42.25;23.30;;;;;;;-145.01;100.00;64805.59;4995650;28;20528;-65
2021/08/29 09:54:54;;;;;;;39.63;23.95;;;;;;;-145.01;100.00;64805.59;4995865;28;20038;-65
2021/08/29 09:57:20;;;;;;;40.25;22.75;;;;;;;-145.01;100.00;64805.59;4995568;28;20046;-65
2021/08/29 09:59:50;;;;;;;41.63;22.77;;;;;;;-145.01;100.00;64805.59;4994963;28;20031;-65
2021/08/29 10:02:28;;;;;;;44.83;25.33;;;;;;;-145.01;100.00;64805.59;4995445;28;20128;-65
2021/08/29 10:05:16;;;;;;;38.38;24.13;;;;;;;-145.01;100.00;64805.59;4994632;28;20030;-65
2021/08/29 10:08:09;;;;;;;39.05;24.48;;;;;;;-145.01;100.00;64805.59;4994187;28;20039;-66
2021/08/29 10:10:39;;;;;;;38.67;25.45;;;;;;;-145.01;100.00;64805.59;4993766;28;20046;-65
2021/08/29 10:13:04;;;;;;;37.65;24.20;;;;;;;-145.01;100.00;64805.59;4994431;28;20034;-65
2021/08/29 10:15:31;;;;;;;36.80;23.35;;;;;;;-145.01;100.00;64805.59;4995091;28;20037;-65
2021/08/29 10:17:59;;;;;;;45.10;26.05;;;;;;;-145.01;100.00;64805.59;4995637;28;20124;-65
2021/08/29 10:20:25;;;;;;;39.25;24.38;;;;;;;-145.01;100.00;64805.59;4995286;28;20495;-65
2021/08/29 10:22:50;;;;;;;47.15;24.85;;;;;;;-145.01;100.00;64805.59;4994223;28;20034;-66
2021/08/29 10:25:17;;;;;;;41.75;24.33;;;;;;;-145.01;100.00;64805.59;4995060;28;20146;-65
2021/08/29 10:27:51;;;;;;;36.03;22.98;;;;;;;-145.01;100.00;64805.59;4994259;28;20029;-66
2021/08/29 10:30:16;;;;;;;35.03;22.27;;;;;;;-145.01;100.00;64805.59;4993717;28;20026;-65
2021/08/29 10:32:46;;;;;;;23.02;15.90;;;;;;;-145.01;100.00;64805.59;4977969;28;20026;-66
2021/08/29 10:35:12;;;;;;;25.57;17.03;;;;;;;-145.01;100.00;64805.59;4994887;28;20029;-66
2021/08/29 10:37:38;;;;;;;26.52;16.48;;;;;;;-145.01;100.00;64805.59;4995230;28;20113;-65
2021/08/29 10:40:05;;;;;;;21.88;14.23;;;;;;;-145.01;100.00;64805.59;4993472;28;20018;-65
2021/08/29 10:42:33;;;;;;;21.85;15.20;;;;;;;-145.01;100.00;64805.59;4995087;28;20027;-65
2021/08/29 10:44:59;;;;;;;24.92;13.48;;;;;;;-145.01;100.00;64805.59;4995045;28;20033;-65
2021/08/29 10:47:24;;;;;;;23.45;14.77;;;;;;;-145.01;100.00;64805.59;4994665;28;20592;-65